Latest Coastal Weather Observations for Low Head

IDV60701

Issued at 6:31 pm EST Friday 22 May 2015 (issued every 10 minutes, with the page automatically refreshed every 10 minutes)

About coastal observations | Map of coastal stations | Coastal observations for VIC | Marine services | Other Formats
Station Details ID: 091293 Name: LOW HEAD Lat: -41.05 Lon: 146.79 Height: 3.0 m
Data from the previous 72 hours. | See also: Recent months at Low Head
Date/Time
EST
Temp

°C
Wind Pressure Rain
since 9am
mm
Weather Cloud Vis
km
Sea
Height
m
Swell
Dir
 
Speed
knots
Gust
knots
hPa Trend Height
m
Period
s
Dir
22/06:30pm 11.2 SW 5 6 1027.2 - 0.0 - - - - - - -
22/06:00pm 11.2 WNW 5 6 1027.2 - 0.0 - - - - - - -
22/05:30pm 11.4 W 7 8 1027.2 - 0.0 - - - - - - -
22/05:00pm 11.2 WNW 7 9 1027.0 - 0.0 - - - - - - -
22/04:30pm 11.5 WNW 8 10 1027.0 - 0.0 - - - - - - -
22/04:00pm 12.0 W 7 8 1027.0 - 0.0 - - - - - - -
22/03:30pm 12.1 NW 6 7 1026.9 - 0.0 - - - - - - -
22/03:00pm 12.8 NW 5 6 1026.8 - 0.0 - - - - - - -
22/02:30pm 12.5 WNW 6 7 1026.8 - 0.0 - - - - - - -
22/02:00pm 12.4 WNW 7 8 1026.9 - 0.0 - - - - - - -
22/01:30pm 11.4 S 5 9 1027.0 - 0.0 - - - - - - -
22/01:00pm 11.3 SSE 6 9 1027.3 - 0.0 - - - - - - -
22/12:30pm 11.1 SSE 7 9 1027.4 - 0.0 - - - - - - -
22/12:00pm 10.6 SSE 7 9 1027.8 - 0.0 - - - - - - -
22/11:30am 10.3 SSE 8 10 1028.3 - 0.0 - - - - - - -
22/11:00am 9.8 S 10 13 1028.7 - 0.0 - - - - - - -
22/10:30am 8.9 S 9 11 1028.8 - 0.0 - - - - - - -
22/10:00am 8.1 SSE 9 13 1028.8 - 0.0 - - - - - - -
22/09:30am 7.7 SSE 7 10 1029.0 - 0.0 - - - - - - -
22/09:00am 7.0 SSE 10 13 1028.9 - 0.2 - - - - - - -
22/08:30am 6.4 SSE 7 9 1028.6 - 0.2 - - - - - - -
22/08:00am 6.1 SSE 6 7 1028.8 - 0.2 - - - - - - -
22/07:30am 6.0 SSE 6 7 1028.8 - 0.2 - - - - - - -
22/07:00am 5.7 SSE 5 6 1028.6 - 0.2 - - - - - - -
22/06:30am 6.2 S 5 6 1028.2 - 0.2 - - - - - - -
22/06:00am 6.2 S 5 6 1027.8 - 0.2 - - - - - - -
22/05:30am 6.5 S 4 5 1027.8 - 0.2 - - - - - - -
22/05:00am 6.0 S 5 6 1027.7 - 0.2 - - - - - - -
22/04:30am 6.5 SE 5 6 1027.6 - 0.2 - - - - - - -
22/04:00am 6.6 SE 5 7 1027.7 - 0.2 - - - - - - -
22/03:30am 6.6 SE 6 7 1027.8 - 0.2 - - - - - - -
22/03:00am 7.0 ESE 4 5 1027.9 - 0.2 - - - - - - -
22/02:30am 7.3 ESE 5 6 1028.0 - 0.2 - - - - - - -
22/02:00am 7.7 ESE 5 8 1027.9 - 0.2 - - - - - - -
22/01:30am 8.3 SE 9 13 1027.9 - 0.2 - - - - - - -
22/01:00am 8.3 SE 9 13 1027.9 - 0.2 - - - - - - -
22/12:30am 9.1 SSE 12 15 1027.9 - 0.2 - - - - - - -
22/12:00am 9.3 SSE 13 17 1027.9 - 0.2 - - - - - - -
 
Date/Time
EST
Temp

°C
Wind Pressure Rain
since 9am
mm
Weather Cloud Vis
km
Sea
Height
m
Swell
Dir
 
Speed
knots
Gust
knots
hPa Trend Height
m
Period
s
Dir
21/11:30pm 9.3 SSE 13 16 1027.8 - 0.2 - - - - - - -
21/11:00pm 9.5 SSE 12 16 1028.0 - 0.2 - - - - - - -
21/10:30pm 9.4 SSE 11 16 1028.1 - 0.2 - - - - - - -
21/10:00pm 9.7 SSE 13 17 1027.9 - 0.2 - - - - - - -
21/09:30pm 9.8 SSE 13 16 1027.7 - 0.2 - - - - - - -
21/09:00pm 9.5 SSE 11 14 1027.5 - 0.2 - - - - - - -
21/08:30pm 9.8 SSE 9 14 1027.5 - 0.2 - - - - - - -
21/08:00pm 10.1 SE 9 13 1027.3 - 0.2 - - - - - - -
21/07:30pm 10.2 SE 8 13 1027.2 - 0.2 - - - - - - -
21/07:00pm 10.4 SSE 10 15 1027.0 - 0.2 - - - - - - -
21/06:30pm 10.4 SSE 11 13 1026.6 - 0.2 - - - - - - -
21/06:00pm 10.1 SE 10 15 1026.3 - 0.2 - - - - - - -
21/05:30pm 10.4 SE 8 12 1025.8 - 0.2 - - - - - - -
21/05:00pm 11.0 SE 10 14 1025.3 - 0.2 - - - - - - -
21/04:30pm 11.8 SE 9 16 1025.0 - 0.2 - - - - - - -
21/04:00pm 12.4 SSE 13 18 1024.8 - 0.2 - - - - - - -
21/03:30pm 12.6 SSE 14 21 1024.4 - 0.2 - - - - - - -
21/03:00pm 12.7 SSE 14 19 1024.1 - 0.2 - - - - - - -
21/02:30pm 12.7 SE 14 20 1024.0 - 0.2 - - - - - - -
21/02:00pm 12.7 SSE 13 20 1023.9 - 0.2 - - - - - - -
21/01:30pm 12.8 SSE 15 20 1023.8 - 0.2 - - - - - - -
21/01:00pm 12.3 SSE 17 22 1023.9 - 0.2 - - - - - - -
21/12:30pm 12.3 SSE 15 22 1023.9 - 0.2 - - - - - - -
21/12:00pm 11.9 SE 16 24 1024.0 - 0.2 Recent precip. - - - - - -
21/11:30am 11.7 SE 17 24 1024.2 - 0.2 - - - - - - -
21/11:07am 11.5 SE 15 25 1024.2 - 0.0 - - - - - - -
21/11:00am 11.4 SE 16 23 1024.2 - 0.0 - - - - - - -
21/10:30am 10.5 SSE 15 24 1024.0 - 0.0 - - - - - - -
21/10:00am 9.6 SSE 13 17 1023.5 - 0.0 - - - - - - -
21/09:30am 8.7 SSE 13 16 1023.2 - 0.0 - - - - - - -
21/09:00am 7.8 SSE 13 18 1022.8 - 13.4 - - - - - - -
21/08:30am 7.2 SSE 15 19 1022.4 - 13.4 - - - - - - -
21/08:00am 7.2 SSE 17 21 1021.9 - 13.4 - - - - - - -
21/07:30am 7.1 SSE 17 22 1021.5 - 13.4 - - - - - - -
21/07:00am 7.3 SSE 18 22 1021.1 - 13.4 - - - - - - -
21/06:30am 7.5 SSE 17 21 1020.8 - 13.4 - - - - - - -
21/06:00am 8.1 S 18 21 1020.1 - 13.4 - - - - - - -
21/05:30am 7.9 SSE 18 22 1019.7 - 13.4 - - - - - - -
21/05:00am 8.1 SSE 18 22 1019.2 - 13.4 - - - - - - -
21/04:30am 8.6 S 19 22 1018.8 - 13.4 - - - - - - -
21/04:00am 8.6 SSE 18 22 1018.4 - 13.4 - - - - - - -
21/03:30am 9.0 SSE 17 21 1018.1 - 13.4 - - - - - - -
21/03:00am 9.6 SSE 16 19 1018.0 - 13.4 - - - - - - -
21/02:30am 9.8 SSE 16 19 1017.8 - 13.4 - - - - - - -
21/02:00am 10.2 S 13 16 1017.5 - 13.4 - - - - - - -
21/01:30am 9.7 SSE 7 11 1017.0 - 13.4 - - - - - - -
21/01:00am 10.6 S 11 13 1017.0 - 13.4 - - - - - - -
21/12:30am 10.0 SSE 9 14 1016.9 - 13.4 - - - - - - -
21/12:00am 9.9 SSE 10 13 1016.6 - 13.4 - - - - - - -
 
Date/Time
EST
Temp

°C
Wind Pressure Rain
since 9am
mm
Weather Cloud Vis
km
Sea
Height
m
Swell
Dir
 
Speed
knots
Gust
knots
hPa Trend Height
m
Period
s
Dir
20/11:30pm 10.9 S 14 18 1016.3 - 13.4 - - - - - - -
20/11:00pm 10.7 SSE 9 11 1016.0 - 13.4 - - - - - - -
20/10:30pm 11.6 S 13 17 1016.0 - 13.4 - - - - - - -
20/10:00pm 11.4 SSE 13 16 1015.9 - 13.4 - - - - - - -
20/09:30pm 11.7 S 10 13 1015.5 - 13.4 - - - - - - -
20/09:00pm 11.3 SSE 8 9 1014.8 - 13.4 - - - - - - -
20/08:30pm 11.4 SSE 7 9 1014.4 - 13.4 - - - - - - -
20/08:00pm 11.7 SSE 9 12 1014.0 - 13.4 - - - - - - -
20/07:30pm 11.7 SSE 9 11 1013.7 - 13.4 - - - - - - -
20/07:00pm 11.5 SE 7 8 1013.2 - 13.4 - - - - - - -
20/06:30pm 11.9 SSE 9 12 1013.0 - 13.2 - - - - - - -
20/06:00pm 12.2 SSE 7 10 1012.6 - 13.0 Rain - - - - - -
20/05:30pm 12.2 SE 7 9 1012.1 - 12.4 - - - - - - -
20/05:00pm 12.4 SE 6 8 1011.7 - 12.2 - - - - - - -
20/04:30pm 12.4 SE 6 8 1011.1 - 12.2 - - - - - - -
20/04:00pm 12.5 SSE 8 11 1010.8 - 11.8 - - - - - - -
20/03:30pm 12.7 SSE 5 7 1010.4 - 10.6 - - - - - - -
20/03:00pm 12.5 SE 5 8 1009.9 - 10.4 Recent precip. - - - - - -
20/02:30pm 12.4 SE 7 8 1009.8 - 9.6 - - - - - - -
20/02:00pm 12.0 SSE 9 13 1009.7 - 9.4 - - - - - - -
20/01:30pm 11.8 SSE 9 12 1009.5 - 9.4 - - - - - - -
20/01:00pm 11.5 SSE 13 17 1009.5 - 9.2 - - - - - - -
20/12:30pm 11.2 SSE 15 19 1009.6 - 8.8 - - - - - - -
20/12:00pm 10.6 SSE 13 17 1009.7 - 7.8 Rain - - - - - -
20/11:30am 10.6 SSE 14 18 1009.9 - 6.0 - - - - - - -
20/11:00am 10.6 SSE 16 19 1010.0 - 4.0 - - - - - - -
20/10:30am 11.0 SSE 11 14 1010.0 - 3.6 - - - - - - -
20/10:00am 10.9 S 11 14 1009.7 - 2.4 - - - - - - -
20/09:30am 10.7 SSE 10 13 1009.3 - 0.6 - - - - - - -
20/09:00am 10.6 SSE 9 11 1009.3 - 7.6 - - - - - - -
20/08:30am 10.7 SSE 11 13 1008.8 - 7.6 - - - - - - -
20/08:00am 10.4 S 10 12 1008.6 - 7.6 - - - - - - -
20/07:30am 9.4 SSE 8 9 1008.3 - 7.4 - - - - - - -
20/07:00am 9.4 SSE 9 10 1008.1 - 7.4 - - - - - - -
20/06:30am 10.1 S 7 9 1007.7 - 7.4 - - - - - - -
20/06:00am 10.6 SSE 4 5 1007.5 - 7.4 - - - - - - -
20/05:30am 11.3 SSE 7 8 1007.3 - 7.4 - - - - - - -
20/05:00am 12.3 WSW 7 8 1007.1 - 7.4 - - - - - - -
20/04:30am 12.5 W 7 8 1006.9 - 7.4 - - - - - - -
20/04:00am 12.9 W 7 9 1007.0 - 7.4 - - - - - - -
20/03:30am 13.3 W 6 7 1006.9 - 7.4 - - - - - - -
20/03:00am 13.2 SW 5 7 1006.7 - 7.4 - - - - - - -
20/02:30am 13.8 W 8 10 1006.7 - 7.4 - - - - - - -
20/02:00am 13.9 W 8 9 1006.5 - 7.4 - - - - - - -
20/01:30am 14.1 W 12 14 1006.6 - 7.4 - - - - - - -
20/01:00am 14.2 WNW 12 15 1006.5 - 7.4 - - - - - - -
20/12:30am 14.4 WNW 12 15 1006.6 - 7.4 - - - - - - -
20/12:00am 14.3 NW 14 16 1006.5 - 7.4 Recent precip. - - - - - -
 
Date/Time
EST
Temp

°C
Wind Pressure Rain
since 9am
mm
Weather Cloud Vis
km
Sea
Height
m
Swell
Dir
 
Speed
knots
Gust
knots
hPa Trend Height
m
Period
s
Dir
19/11:30pm 14.3 NW 14 16 1006.5 - 7.4 - - - - - - -
19/11:00pm 14.3 NW 16 19 1006.7 - 7.2 - - - - - - -
19/10:30pm 14.3 NW 17 21 1006.7 - 7.2 - - - - - - -
19/10:00pm 14.4 NW 16 19 1006.8 - 6.8 - - - - - - -
19/09:30pm 14.2 NW 13 21 1006.8 - 6.6 - - - - - - -
19/09:00pm 14.6 NW 18 21 1006.8 - 5.6 - - - - - - -
19/08:30pm 14.5 NW 17 20 1006.6 - 5.6 - - - - - - -
19/08:00pm 14.5 NW 15 19 1006.5 - 5.6 - - - - - - -
19/07:30pm 14.4 NW 16 19 1006.3 - 5.6 - - - - - - -
19/07:00pm 14.2 NW 16 19 1006.1 - 5.6 - - - - - - -

Other Formats:

Comma delimited format used in spreadsheet applications
http://www.bom.gov.au/fwo/IDV60701/IDV60701.95964.axf

JavaScript Object Notation format (JSON) in row-major order
http://www.bom.gov.au/fwo/IDV60701/IDV60701.95964.json